Time;durP1;ratioP1;P1;durP2;ratioP2;P2;SDS_P1;SDS_P2;PMS_P1;PMS_P2;Temp;Humidity;BMP_temperature;BMP_pressure;BME280_temperature;BME280_humidity;BME280_pressure;Samples;Min_cycle;Max_cycle;Signal;HPM_P1;HPM_P2
2023/12/06 00:01:33;;;;;;;5.88;4.43;;;8.40;96.70;;;;;;4881069;29;20452;-59
2023/12/06 00:04:04;;;;;;;6.72;5.18;;;8.40;96.70;;;;;;4875047;29;20072;-59
2023/12/06 00:06:32;;;;;;;5.90;4.78;;;8.30;96.70;;;;;;4884447;29;20067;-59
2023/12/06 00:09:00;;;;;;;7.18;5.72;;;8.30;96.70;;;;;;4882810;29;20048;-59
2023/12/06 00:11:29;;;;;;;6.75;5.70;;;8.30;96.70;;;;;;4879581;29;20057;-59
2023/12/06 00:13:58;;;;;;;8.18;6.18;;;8.30;96.70;;;;;;4866501;29;20040;-59
2023/12/06 00:16:26;;;;;;;7.65;6.07;;;8.30;96.70;;;;;;4884002;29;20519;-59
2023/12/06 00:18:55;;;;;;;9.60;6.72;;;8.30;96.70;;;;;;4898409;29;20109;-59
2023/12/06 00:21:25;;;;;;;8.23;6.53;;;8.30;96.70;;;;;;4874821;29;20068;-59
2023/12/06 00:23:54;;;;;;;10.45;6.88;;;8.30;96.70;;;;;;4883125;29;20060;-59
2023/12/06 00:26:22;;;;;;;9.65;6.93;;;8.30;96.70;;;;;;4898906;29;20064;-59
2023/12/06 00:28:51;;;;;;;8.55;6.75;;;8.20;96.70;;;;;;4899288;29;20119;-59
2023/12/06 00:31:21;;;;;;;8.20;6.53;;;8.30;96.70;;;;;;4899795;29;20055;-59
2023/12/06 00:33:49;;;;;;;10.35;7.13;;;8.30;96.70;;;;;;4874962;29;20048;-59
2023/12/06 00:36:18;;;;;;;8.85;6.53;;;8.30;96.70;;;;;;4867213;29;20051;-59
2023/12/06 00:38:48;;;;;;;7.70;6.47;;;8.30;96.70;;;;;;4869364;29;20095;-59
2023/12/06 00:41:16;;;;;;;7.47;5.55;;;8.20;96.70;;;;;;4890653;29;20045;-59
2023/12/06 00:43:45;;;;;;;7.38;5.53;;;8.20;96.70;;;;;;4877540;29;20051;-59
2023/12/06 00:46:12;;;;;;;6.53;4.88;;;8.20;96.70;;;;;;4871554;29;20052;-59
2023/12/06 00:48:41;;;;;;;6.70;5.40;;;8.20;96.70;;;;;;4882159;29;20519;-59
2023/12/06 00:51:10;;;;;;;7.57;6.07;;;8.20;96.70;;;;;;4879865;29;20427;-58
2023/12/06 00:53:38;;;;;;;7.82;5.70;;;8.20;96.70;;;;;;4880348;29;20052;-59
2023/12/06 00:56:13;;;;;;;7.00;5.40;;;8.20;96.70;;;;;;4890453;29;20048;-58
2023/12/06 00:58:43;;;;;;;5.70;4.85;;;8.20;96.70;;;;;;4898182;29;20052;-59
2023/12/06 01:01:12;;;;;;;5.65;4.45;;;8.30;96.70;;;;;;4880038;29;20049;-59
2023/12/06 01:03:42;;;;;;;5.53;4.43;;;8.20;96.70;;;;;;4892903;29;20075;-59
2023/12/06 01:06:11;;;;;;;6.70;4.63;;;8.30;96.70;;;;;;4879267;29;20530;-59
2023/12/06 01:08:42;;;;;;;8.10;5.07;;;8.20;96.70;;;;;;4877425;29;20045;-59
2023/12/06 01:11:12;;;;;;;7.60;5.38;;;8.20;96.70;;;;;;4882278;29;20127;-59
2023/12/06 01:13:40;;;;;;;6.53;5.78;;;8.20;96.70;;;;;;4881530;29;20054;-59
2023/12/06 01:16:09;;;;;;;8.18;6.32;;;8.30;96.70;;;;;;4883468;29;20570;-59
2023/12/06 01:18:38;;;;;;;7.50;5.57;;;8.30;96.70;;;;;;4898656;29;20078;-59
2023/12/06 01:21:06;;;;;;;6.40;5.70;;;8.20;96.70;;;;;;4862772;29;20079;-59
2023/12/06 01:23:34;;;;;;;10.48;5.68;;;8.20;96.70;;;;;;4861034;29;20067;-59
2023/12/06 01:26:04;;;;;;;10.10;7.00;;;8.30;96.70;;;;;;4851158;29;20061;-59
2023/12/06 01:28:34;;;;;;;10.23;6.32;;;8.20;96.70;;;;;;4874072;29;20056;-59
2023/12/06 01:31:02;;;;;;;8.13;5.70;;;8.20;96.70;;;;;;4855210;29;20096;-59
2023/12/06 01:33:33;;;;;;;6.65;5.32;;;8.20;96.70;;;;;;4862770;29;20048;-59
2023/12/06 01:36:02;;;;;;;8.30;5.68;;;8.20;96.70;;;;;;4863940;29;20052;-59
2023/12/06 01:38:33;;;;;;;6.85;4.97;;;8.10;96.70;;;;;;4846019;29;20041;-59
2023/12/06 01:41:02;;;;;;;7.15;5.63;;;8.10;96.70;;;;;;4857787;29;20075;-59
2023/12/06 01:43:31;;;;;;;8.43;5.57;;;8.10;96.70;;;;;;4887332;29;20416;-59
2023/12/06 01:46:01;;;;;;;7.25;5.57;;;8.20;96.70;;;;;;4861018;29;20057;-59
2023/12/06 01:48:31;;;;;;;7.25;5.05;;;8.20;96.70;;;;;;4845788;29;20060;-59
2023/12/06 01:51:00;;;;;;;5.88;4.95;;;8.20;96.70;;;;;;4876126;29;20052;-59
2023/12/06 01:53:28;;;;;;;6.85;5.10;;;8.10;96.70;;;;;;4860234;29;20048;-59
2023/12/06 01:55:57;;;;;;;7.53;5.38;;;8.10;96.70;;;;;;4862945;29;20496;-59
2023/12/06 01:58:28;;;;;;;7.28;5.78;;;8.20;96.70;;;;;;4878876;29;20059;-59
2023/12/06 02:00:57;;;;;;;7.78;5.85;;;8.10;96.70;;;;;;4857945;29;20057;-59
2023/12/06 02:03:29;;;;;;;7.45;5.63;;;8.10;96.70;;;;;;4863978;29;20551;-59
2023/12/06 02:05:59;;;;;;;7.00;5.35;;;8.10;96.70;;;;;;4861126;29;20052;-59
2023/12/06 02:08:29;;;;;;;7.70;5.65;;;8.10;96.70;;;;;;4865629;29;20041;-58
2023/12/06 02:11:00;;;;;;;7.53;5.45;;;8.10;96.70;;;;;;4864754;29;20063;-58
2023/12/06 02:13:29;;;;;;;7.05;5.45;;;8.10;96.70;;;;;;4885984;29;20776;-58
2023/12/06 02:15:59;;;;;;;8.90;6.03;;;8.10;96.70;;;;;;4866574;29;20045;-58
2023/12/06 02:18:30;;;;;;;8.98;6.10;;;8.10;96.70;;;;;;4862197;29;20143;-58
2023/12/06 02:20:59;;;;;;;7.30;6.05;;;8.10;96.70;;;;;;4862629;29;20156;-57
2023/12/06 02:23:33;;;;;;;7.95;5.97;;;8.10;96.70;;;;;;4859591;29;20074;-58
2023/12/06 02:26:04;;;;;;;8.73;6.30;;;8.10;96.70;;;;;;4849819;29;20083;-57
2023/12/06 02:28:33;;;;;;;9.05;6.93;;;8.10;96.70;;;;;;4848515;29;20532;-57
2023/12/06 02:31:02;;;;;;;8.43;6.35;;;8.10;96.70;;;;;;4849586;29;20436;-57
2023/12/06 02:33:33;;;;;;;9.00;6.50;;;8.10;96.70;;;;;;4830796;29;20057;-57
2023/12/06 02:36:04;;;;;;;7.40;6.43;;;8.10;96.70;;;;;;4854779;29;20064;-57
2023/12/06 02:38:33;;;;;;;8.15;6.68;;;8.10;96.70;;;;;;4863940;29;20053;-57
2023/12/06 02:41:06;;;;;;;7.93;6.32;;;8.00;96.70;;;;;;4850187;29;20132;-58
2023/12/06 02:43:35;;;;;;;8.43;6.70;;;8.00;96.70;;;;;;4845554;29;20064;-58
2023/12/06 02:46:06;;;;;;;8.27;6.50;;;7.90;96.70;;;;;;4842423;29;20045;-58
2023/12/06 02:48:35;;;;;;;10.65;6.60;;;7.90;96.70;;;;;;4863720;29;20049;-57
2023/12/06 02:51:06;;;;;;;11.13;6.45;;;7.90;96.70;;;;;;4846623;29;20600;-57
2023/12/06 02:53:35;;;;;;;8.10;5.90;;;7.90;96.70;;;;;;4863917;29;20057;-58
2023/12/06 02:56:09;;;;;;;8.73;6.70;;;7.90;96.70;;;;;;4848218;29;20049;-58
2023/12/06 02:58:38;;;;;;;10.00;7.32;;;7.90;96.70;;;;;;4856551;29;20060;-58
2023/12/06 03:01:07;;;;;;;10.65;6.95;;;7.80;96.70;;;;;;4847136;29;20531;-57
2023/12/06 03:03:36;;;;;;;8.73;6.63;;;7.70;96.70;;;;;;4848214;29;20052;-58
2023/12/06 03:06:06;;;;;;;10.02;6.88;;;7.60;96.70;;;;;;4863449;29;20049;-57
2023/12/06 03:08:35;;;;;;;9.60;6.85;;;7.60;96.70;;;;;;4854456;29;20527;-58
2023/12/06 03:11:05;;;;;;;8.88;6.40;;;7.50;96.70;;;;;;4829407;29;20142;-58
2023/12/06 03:13:35;;;;;;;9.25;6.10;;;7.50;96.70;;;;;;4860610;29;20079;-58
2023/12/06 03:16:04;;;;;;;8.43;6.35;;;7.40;96.70;;;;;;4862075;29;20057;-58
2023/12/06 03:18:35;;;;;;;11.82;7.28;;;7.40;96.70;;;;;;4680812;24;20579;-54
2023/12/06 03:21:06;;;;;;;9.50;6.50;;;7.50;96.70;;;;;;4889308;29;20059;-53
2023/12/06 03:23:36;;;;;;;12.77;6.32;;;7.40;96.70;;;;;;4885060;29;20048;-53
2023/12/06 03:26:07;;;;;;;10.85;6.47;;;7.40;96.70;;;;;;4899605;29;20059;-54
2023/12/06 03:28:36;;;;;;;13.75;6.97;;;7.50;96.70;;;;;;4901426;29;20055;-54
2023/12/06 03:31:04;;;;;;;22.45;6.47;;;7.50;96.70;;;;;;4898249;29;20044;-54
2023/12/06 03:33:33;;;;;;;11.05;5.85;;;7.40;96.70;;;;;;4890704;29;20051;-54
2023/12/06 03:36:02;;;;;;;13.57;5.80;;;7.50;96.70;;;;;;4900112;29;20044;-54
2023/12/06 03:38:32;;;;;;;18.45;6.03;;;7.50;96.70;;;;;;4884690;29;20052;-53
2023/12/06 03:41:01;;;;;;;12.32;6.07;;;7.50;96.70;;;;;;4884465;29;20052;-54
2023/12/06 03:43:32;;;;;;;21.65;5.95;;;7.40;96.70;;;;;;4912146;29;20111;-54
2023/12/06 03:46:01;;;;;;;10.38;5.43;;;7.40;96.70;;;;;;4896749;29;20048;-54
2023/12/06 03:48:31;;;;;;;15.02;5.50;;;7.40;96.70;;;;;;4910954;29;20574;-54
2023/12/06 03:51:00;;;;;;;17.92;5.38;;;7.40;96.70;;;;;;4917690;29;20063;-54
2023/12/06 03:53:32;;;;;;;13.93;5.20;;;7.30;96.70;;;;;;4903143;29;20043;-54
2023/12/06 03:56:02;;;;;;;15.05;5.28;;;7.30;96.70;;;;;;4918841;29;20059;-54
2023/12/06 03:58:34;;;;;;;17.40;5.35;;;7.30;96.70;;;;;;4904021;29;20052;-54
2023/12/06 04:01:04;;;;;;;18.13;5.45;;;7.20;96.70;;;;;;4897282;29;20052;-54
2023/12/06 04:03:35;;;;;;;18.02;5.38;;;7.20;96.70;;;;;;4899690;29;20513;-54
2023/12/06 04:06:04;;;;;;;14.63;5.05;;;7.20;96.70;;;;;;4900204;29;20058;-54
2023/12/06 04:08:32;;;;;;;23.35;5.60;;;7.20;96.70;;;;;;4918369;29;20103;-54
2023/12/06 04:11:02;;;;;;;17.88;5.10;;;7.30;96.70;;;;;;4899210;29;20552;-54
2023/12/06 04:13:32;;;;;;;12.93;5.50;;;7.20;96.70;;;;;;4929693;29;20067;-54
2023/12/06 04:16:01;;;;;;;14.13;5.70;;;7.20;96.70;;;;;;4912538;29;20138;-54
2023/12/06 04:18:29;;;;;;;22.05;4.93;;;7.10;96.70;;;;;;4894502;29;20515;-55
2023/12/06 04:20:58;;;;;;;7.97;5.55;;;7.10;96.70;;;;;;4898056;29;20079;-54
2023/12/06 04:23:29;;;;;;;13.52;5.90;;;7.10;96.70;;;;;;4883915;29;20507;-54
2023/12/06 04:25:59;;;;;;;9.30;5.40;;;7.10;96.70;;;;;;4883335;29;20082;-54
2023/12/06 04:28:28;;;;;;;18.92;5.55;;;7.20;96.70;;;;;;4892596;29;20574;-54
2023/12/06 04:30:59;;;;;;;13.18;5.60;;;7.20;96.70;;;;;;4890966;29;20067;-54
2023/12/06 04:33:29;;;;;;;13.65;5.18;;;7.20;96.70;;;;;;4913028;29;20052;-54
2023/12/06 04:35:58;;;;;;;15.98;5.82;;;7.20;96.70;;;;;;4883278;29;20142;-53
2023/12/06 04:38:26;;;;;;;16.30;5.55;;;7.20;96.70;;;;;;4901690;29;20597;-54
2023/12/06 04:40:55;;;;;;;9.50;4.88;;;7.10;96.70;;;;;;4902011;29;20142;-54
2023/12/06 04:43:23;;;;;;;11.07;5.05;;;7.10;96.70;;;;;;4894928;29;20124;-54
2023/12/06 04:45:52;;;;;;;6.47;4.85;;;7.10;96.70;;;;;;4885703;29;20514;-53
2023/12/06 04:48:22;;;;;;;7.70;4.63;;;7.10;96.70;;;;;;4917386;29;20040;-53
2023/12/06 04:50:52;;;;;;;10.15;4.72;;;7.10;96.70;;;;;;4901998;29;20154;-54
2023/12/06 04:53:21;;;;;;;7.15;4.30;;;7.10;96.70;;;;;;4897675;29;20129;-53
2023/12/06 04:55:50;;;;;;;8.57;4.60;;;7.10;96.70;;;;;;4897052;29;20052;-53
2023/12/06 04:58:19;;;;;;;9.00;4.97;;;7.00;96.70;;;;;;4904573;29;20079;-53
2023/12/06 05:00:47;;;;;;;12.60;6.13;;;7.00;96.70;;;;;;4917462;29;20134;-53
2023/12/06 05:03:16;;;;;;;9.13;5.43;;;7.00;96.70;;;;;;4904145;29;20067;-53
2023/12/06 05:05:48;;;;;;;7.22;5.20;;;7.00;96.70;;;;;;4883104;29;20051;-53
2023/12/06 05:08:16;;;;;;;10.38;5.47;;;7.00;96.70;;;;;;4897908;29;20048;-53
2023/12/06 05:10:45;;;;;;;11.23;5.32;;;7.00;96.70;;;;;;4901595;29;20047;-53
2023/12/06 05:13:15;;;;;;;8.93;5.40;;;7.10;96.70;;;;;;4897465;29;20147;-54
2023/12/06 05:15:44;;;;;;;7.97;4.97;;;7.10;96.70;;;;;;4901071;29;20075;-53
2023/12/06 05:18:14;;;;;;;8.35;5.57;;;7.10;96.70;;;;;;4890433;29;20490;-54
2023/12/06 05:20:44;;;;;;;9.85;5.80;;;7.10;96.70;;;;;;4896695;29;20128;-53
2023/12/06 05:23:15;;;;;;;8.90;5.75;;;7.10;96.70;;;;;;4915850;29;20048;-53
2023/12/06 05:25:45;;;;;;;7.78;5.75;;;7.10;96.70;;;;;;4901689;29;20150;-54
2023/12/06 05:28:15;;;;;;;9.73;6.30;;;7.10;96.70;;;;;;4899252;29;20056;-54
2023/12/06 05:30:45;;;;;;;13.90;5.45;;;7.10;96.70;;;;;;4916626;29;20048;-53
2023/12/06 05:33:16;;;;;;;8.40;6.30;;;7.10;96.70;;;;;;4912743;29;20585;-53
2023/12/06 05:35:46;;;;;;;11.55;6.00;;;7.00;96.70;;;;;;4914697;29;20059;-53
2023/12/06 05:38:18;;;;;;;10.82;5.82;;;7.00;96.70;;;;;;4889111;29;20048;-53
2023/12/06 05:40:46;;;;;;;8.40;5.75;;;6.90;96.70;;;;;;4887119;29;20103;-54
2023/12/06 05:43:16;;;;;;;8.75;5.50;;;7.00;96.70;;;;;;4898803;29;20052;-54
2023/12/06 05:45:46;;;;;;;9.35;6.40;;;7.00;96.70;;;;;;4901020;29;20083;-53
2023/12/06 05:48:15;;;;;;;8.40;5.78;;;7.00;96.70;;;;;;4896653;29;20447;-54
2023/12/06 05:50:46;;;;;;;15.07;5.22;;;7.00;96.70;;;;;;4895251;29;20056;-53
2023/12/06 05:53:17;;;;;;;7.50;5.45;;;7.00;96.70;;;;;;4907231;29;20061;-54
2023/12/06 05:55:46;;;;;;;9.35;5.93;;;6.90;96.70;;;;;;4901086;29;20052;-53
2023/12/06 05:58:14;;;;;;;8.98;5.35;;;6.90;96.70;;;;;;4916190;29;20048;-53
2023/12/06 06:00:44;;;;;;;9.45;5.68;;;7.00;96.70;;;;;;4900899;29;20047;-53
2023/12/06 06:03:13;;;;;;;8.07;5.70;;;7.00;96.70;;;;;;4891770;29;20060;-53
2023/12/06 06:05:42;;;;;;;9.57;6.32;;;7.00;96.70;;;;;;4878094;29;20131;-52
2023/12/06 06:08:11;;;;;;;8.00;4.95;;;6.90;96.70;;;;;;4884312;29;20058;-53
2023/12/06 06:10:41;;;;;;;11.82;5.80;;;6.90;96.70;;;;;;4897636;29;20108;-53
2023/12/06 06:13:11;;;;;;;9.18;5.88;;;6.90;96.70;;;;;;4898807;29;20048;-53
2023/12/06 06:15:42;;;;;;;6.68;5.05;;;6.90;96.70;;;;;;4911803;29;20474;-53
2023/12/06 06:18:14;;;;;;;6.95;5.20;;;7.00;96.70;;;;;;4896786;29;20055;-53
2023/12/06 06:20:45;;;;;;;10.75;5.57;;;7.00;96.70;;;;;;4911603;29;20063;-53
2023/12/06 06:23:16;;;;;;;9.00;4.93;;;7.00;96.70;;;;;;4897118;29;20056;-54
2023/12/06 06:25:47;;;;;;;6.45;4.45;;;7.00;96.70;;;;;;4908929;29;20052;-53
2023/12/06 06:28:19;;;;;;;7.82;5.50;;;7.00;96.70;;;;;;4912422;29;20055;-53
2023/12/06 06:30:47;;;;;;;7.90;5.22;;;7.10;96.70;;;;;;4914171;29;20046;-53
2023/12/06 06:33:16;;;;;;;8.63;5.60;;;7.00;96.70;;;;;;4906568;29;20059;-57
2023/12/06 06:35:44;;;;;;;13.85;5.78;;;7.00;96.70;;;;;;4899368;29;20059;-53
2023/12/06 06:38:17;;;;;;;8.85;5.70;;;7.00;96.70;;;;;;4900687;29;20062;-53
2023/12/06 06:40:50;;;;;;;10.23;6.13;;;7.00;96.70;;;;;;4891612;29;20067;-53
2023/12/06 06:43:19;;;;;;;9.60;5.65;;;6.90;96.70;;;;;;4886969;29;20118;-54
2023/12/06 06:45:48;;;;;;;12.15;5.75;;;6.90;96.70;;;;;;4900005;29;20518;-53
2023/12/06 06:48:20;;;;;;;9.20;5.60;;;7.00;96.70;;;;;;4891493;29;20052;-54
2023/12/06 06:50:48;;;;;;;7.45;5.22;;;7.00;96.70;;;;;;4913937;29;20166;-54
2023/12/06 06:53:17;;;;;;;10.40;5.60;;;7.00;96.70;;;;;;4897152;29;20139;-54
2023/12/06 06:55:45;;;;;;;7.95;5.80;;;7.00;96.70;;;;;;4894650;29;20055;-54
2023/12/06 06:58:15;;;;;;;9.15;5.85;;;7.00;96.70;;;;;;4890675;29;20140;-54
2023/12/06 07:00:44;;;;;;;9.20;5.90;;;7.00;96.70;;;;;;4891258;29;20074;-54
2023/12/06 07:03:13;;;;;;;8.23;5.63;;;7.10;96.70;;;;;;4898800;29;20039;-53
2023/12/06 07:05:44;;;;;;;8.05;5.18;;;7.00;96.70;;;;;;4901105;29;20058;-54
2023/12/06 07:08:15;;;;;;;8.23;5.40;;;7.10;96.70;;;;;;4916974;29;20064;-54
2023/12/06 07:10:47;;;;;;;9.45;5.50;;;7.10;96.70;;;;;;4901964;29;20126;-54
2023/12/06 07:13:19;;;;;;;8.82;4.95;;;7.00;96.70;;;;;;4902784;29;20107;-54
2023/12/06 07:15:48;;;;;;;9.25;5.18;;;7.00;96.70;;;;;;4902763;29;20099;-53
2023/12/06 07:18:16;;;;;;;10.70;4.70;;;7.00;96.70;;;;;;4902288;29;20056;-54
2023/12/06 07:20:45;;;;;;;9.90;5.15;;;7.00;96.70;;;;;;4901531;29;20060;-54
2023/12/06 07:23:18;;;;;;;9.05;5.35;;;7.00;96.70;;;;;;4919247;29;20417;-54
2023/12/06 07:25:46;;;;;;;7.93;4.40;;;7.00;96.70;;;;;;4900989;29;20052;-54
2023/12/06 07:28:16;;;;;;;8.75;4.35;;;7.00;96.70;;;;;;4902828;29;20048;-53
2023/12/06 07:30:45;;;;;;;9.82;3.83;;;7.00;96.70;;;;;;4903281;29;20047;-54
2023/12/06 07:33:14;;;;;;;6.78;3.65;;;6.90;96.70;;;;;;4892479;29;20105;-53
2023/12/06 07:35:43;;;;;;;7.80;3.67;;;7.00;96.70;;;;;;4902205;29;20058;-53
2023/12/06 07:38:13;;;;;;;5.28;3.85;;;6.90;96.70;;;;;;4903681;29;20528;-53
2023/12/06 07:40:44;;;;;;;7.60;4.38;;;6.90;96.70;;;;;;4896659;29;20052;-54
2023/12/06 07:43:14;;;;;;;6.05;4.20;;;6.80;96.70;;;;;;4884680;29;20071;-54
2023/12/06 07:45:46;;;;;;;6.30;4.20;;;6.80;96.70;;;;;;4915107;29;20059;-54
2023/12/06 07:48:16;;;;;;;7.93;5.00;;;6.80;96.70;;;;;;4903117;29;20079;-54
2023/12/06 07:50:46;;;;;;;8.50;4.30;;;6.90;96.70;;;;;;4899148;29;20048;-54
2023/12/06 07:53:16;;;;;;;6.95;5.00;;;6.80;96.70;;;;;;4900072;29;20454;-54
2023/12/06 07:55:45;;;;;;;8.85;6.38;;;6.80;96.70;;;;;;4899941;29;20136;-53
2023/12/06 07:58:17;;;;;;;8.23;5.80;;;6.80;96.70;;;;;;4893445;29;20503;-53
2023/12/06 08:00:47;;;;;;;10.77;6.47;;;6.80;96.70;;;;;;4900574;29;20047;-53
2023/12/06 08:03:18;;;;;;;7.85;5.80;;;6.80;96.70;;;;;;4915149;29;20056;-54
2023/12/06 08:05:49;;;;;;;11.75;6.35;;;6.90;96.70;;;;;;4890877;29;20170;-54
2023/12/06 08:08:19;;;;;;;8.90;5.47;;;6.90;96.70;;;;;;4902533;29;20055;-53
2023/12/06 08:10:48;;;;;;;12.40;5.32;;;6.90;96.70;;;;;;4935649;29;20039;-53
2023/12/06 08:13:17;;;;;;;9.18;4.65;;;6.90;96.70;;;;;;4902740;29;20063;-53
2023/12/06 08:15:49;;;;;;;6.90;4.80;;;6.90;96.70;;;;;;4898282;29;20051;-54
2023/12/06 08:18:18;;;;;;;8.82;4.82;;;7.00;96.70;;;;;;4890652;29;20048;-53
2023/12/06 08:20:48;;;;;;;5.80;4.70;;;7.00;96.70;;;;;;4915911;29;20415;-53
2023/12/06 08:23:17;;;;;;;7.63;5.50;;;6.90;96.70;;;;;;4898546;29;20079;-53
2023/12/06 08:25:46;;;;;;;5.05;4.10;;;6.90;96.70;;;;;;4896176;29;20044;-53
2023/12/06 08:28:16;;;;;;;4.68;3.53;;;6.80;96.70;;;;;;4883947;29;20400;-53
2023/12/06 08:30:44;;;;;;;5.43;4.20;;;6.80;96.70;;;;;;4889316;29;20169;-54
2023/12/06 08:33:15;;;;;;;4.28;3.47;;;6.80;96.70;;;;;;4891274;29;20051;-53
2023/12/06 08:35:43;;;;;;;5.90;4.28;;;6.80;96.70;;;;;;4898368;29;20067;-53
2023/12/06 08:38:12;;;;;;;6.75;4.95;;;6.80;96.70;;;;;;4885763;29;20054;-53
2023/12/06 08:40:41;;;;;;;5.72;4.50;;;6.90;96.70;;;;;;4899087;29;20054;-53
2023/12/06 08:43:11;;;;;;;6.20;4.18;;;6.90;96.70;;;;;;4915974;29;20046;-53
2023/12/06 08:45:42;;;;;;;6.75;4.80;;;7.00;96.70;;;;;;4906238;29;20110;-54
2023/12/06 08:48:11;;;;;;;6.97;4.40;;;7.00;96.70;;;;;;4901618;29;20056;-54
2023/12/06 08:50:42;;;;;;;4.65;4.00;;;7.00;96.70;;;;;;4898163;29;20066;-55
2023/12/06 08:53:11;;;;;;;7.20;4.60;;;7.00;96.70;;;;;;4898577;29;20510;-53
2023/12/06 08:55:41;;;;;;;7.60;5.60;;;7.10;96.70;;;;;;4883191;29;20139;-53
2023/12/06 08:58:10;;;;;;;7.53;5.50;;;7.10;96.70;;;;;;4883500;29;20076;-53
2023/12/06 09:00:38;;;;;;;9.23;6.88;;;7.10;96.70;;;;;;4909403;29;20048;-53
2023/12/06 09:03:06;;;;;;;10.70;6.10;;;7.00;96.70;;;;;;4901761;29;20134;-53
2023/12/06 09:05:38;;;;;;;7.15;4.82;;;7.10;96.70;;;;;;4901773;29;20051;-53
2023/12/06 09:08:10;;;;;;;8.05;5.50;;;7.10;96.70;;;;;;4917249;29;20134;-52
2023/12/06 09:10:39;;;;;;;6.43;4.45;;;7.10;96.70;;;;;;4916434;29;20118;-53
2023/12/06 09:13:10;;;;;;;5.85;4.38;;;7.20;96.70;;;;;;4917377;29;20135;-53
2023/12/06 09:15:39;;;;;;;5.88;4.68;;;7.20;96.70;;;;;;4910209;29;20388;-53
2023/12/06 09:18:09;;;;;;;8.82;5.45;;;7.20;96.70;;;;;;4916741;29;20047;-53
2023/12/06 09:20:37;;;;;;;5.70;3.97;;;7.10;96.70;;;;;;4898040;29;20056;-53
2023/12/06 09:23:08;;;;;;;5.45;4.18;;;7.10;96.70;;;;;;4898476;29;20414;-53
2023/12/06 09:25:37;;;;;;;5.72;4.07;;;7.10;96.70;;;;;;4884343;29;20052;-53
2023/12/06 09:28:06;;;;;;;5.38;4.22;;;7.10;96.70;;;;;;4908434;29;20056;-53
2023/12/06 09:30:36;;;;;;;5.60;4.20;;;7.10;96.70;;;;;;4901197;29;20032;-54
2023/12/06 09:33:05;;;;;;;6.32;4.80;;;7.20;96.70;;;;;;4902031;29;20151;-54
2023/12/06 09:35:33;;;;;;;6.82;4.63;;;7.20;96.70;;;;;;4912425;29;20040;-53
2023/12/06 09:38:03;;;;;;;6.78;5.47;;;7.30;96.70;;;;;;4897808;29;20058;-53
2023/12/06 09:40:33;;;;;;;6.45;3.95;;;7.30;96.70;;;;;;4911738;29;20090;-54
2023/12/06 09:43:05;;;;;;;7.18;5.60;;;7.30;96.70;;;;;;4897754;29;20055;-53
2023/12/06 09:45:37;;;;;;;6.65;4.80;;;7.40;96.70;;;;;;4898729;29;20602;-54
2023/12/06 09:48:07;;;;;;;5.80;3.97;;;7.40;96.70;;;;;;4896939;29;20134;-54
2023/12/06 09:50:37;;;;;;;4.07;3.58;;;7.50;96.70;;;;;;4909818;29;20051;-54
2023/12/06 09:53:06;;;;;;;3.90;3.47;;;7.50;96.70;;;;;;4898325;29;20449;-53
2023/12/06 09:55:38;;;;;;;4.20;3.60;;;7.50;96.70;;;;;;4883084;29;20051;-53
2023/12/06 09:58:09;;;;;;;5.55;3.78;;;7.50;96.70;;;;;;4882346;29;20650;-53
2023/12/06 10:00:38;;;;;;;3.58;3.13;;;7.40;96.70;;;;;;4882966;29;20051;-53
2023/12/06 10:03:13;;;;;;;5.47;3.70;;;7.30;96.70;;;;;;4870699;29;20048;-53
2023/12/06 10:05:54;;;;;;;6.43;3.65;;;7.40;96.70;;;;;;4896164;29;20924;-53
2023/12/06 10:08:24;;;;;;;5.03;3.47;;;7.50;96.70;;;;;;4882556;29;20079;-53
2023/12/06 10:11:14;;;;;;;5.55;3.90;;;7.50;96.70;;;;;;4909132;29;20669;-53
2023/12/06 10:13:42;;;;;;;4.78;3.22;;;7.50;96.70;;;;;;4900963;29;20067;-52
2023/12/06 10:16:14;;;;;;;6.82;4.40;;;7.60;96.70;;;;;;4900175;29;20043;-53
2023/12/06 10:18:46;;;;;;;6.80;6.03;;;7.70;96.70;;;;;;4897454;29;20095;-53
2023/12/06 10:21:16;;;;;;;6.32;4.82;;;7.70;96.70;;;;;;4916616;29;20111;-53
2023/12/06 10:23:55;;;;;;;7.15;4.85;;;7.70;96.70;;;;;;4916455;29;20059;-54
2023/12/06 10:26:26;;;;;;;6.45;5.25;;;7.70;96.70;;;;;;4913540;29;20103;-53
2023/12/06 10:28:59;;;;;;;6.50;5.32;;;7.70;96.70;;;;;;4915010;29;20051;-54
2023/12/06 10:31:27;;;;;;;7.85;5.97;;;7.60;96.70;;;;;;4894602;29;20055;-53
2023/12/06 10:33:57;;;;;;;8.23;5.93;;;7.60;96.70;;;;;;4883480;29;20056;-53
2023/12/06 10:36:26;;;;;;;9.70;7.20;;;7.60;96.70;;;;;;4916448;29;20075;-54
2023/12/06 10:38:58;;;;;;;11.60;7.82;;;7.50;96.70;;;;;;4886083;29;20131;-53
2023/12/06 10:41:34;;;;;;;11.07;7.63;;;7.60;96.70;;;;;;4901795;29;20234;-53
2023/12/06 10:44:03;;;;;;;10.07;7.43;;;7.70;96.70;;;;;;4902367;29;20074;-53
2023/12/06 10:46:32;;;;;;;10.18;7.05;;;7.70;96.70;;;;;;4927622;29;20513;-54
2023/12/06 10:49:02;;;;;;;12.45;8.10;;;7.80;96.70;;;;;;4888654;29;20051;-53
2023/12/06 10:51:34;;;;;;;10.77;7.82;;;7.80;96.70;;;;;;4899457;29;20048;-53
2023/12/06 10:54:03;;;;;;;12.15;8.52;;;7.80;96.70;;;;;;4885630;29;20051;-54
2023/12/06 10:56:38;;;;;;;10.57;7.57;;;7.70;96.70;;;;;;4915357;29;20056;-54
2023/12/06 10:59:09;;;;;;;12.02;8.50;;;7.70;96.70;;;;;;4899074;29;20430;-54
2023/12/06 11:01:38;;;;;;;13.18;9.05;;;7.70;96.70;;;;;;4894966;29;20637;-53
2023/12/06 11:04:08;;;;;;;10.48;8.50;;;7.80;96.70;;;;;;4900508;29;20079;-53
2023/12/06 11:06:50;;;;;;;12.20;9.15;;;7.80;96.70;;;;;;4892852;29;20058;-53
2023/12/06 11:09:34;;;;;;;13.20;10.27;;;7.90;96.70;;;;;;4903764;29;20055;-53
2023/12/06 11:12:16;;;;;;;11.60;8.10;;;7.90;96.70;;;;;;4902339;29;20130;-53
2023/12/06 11:15:00;;;;;;;13.18;10.23;;;7.90;96.70;;;;;;4885221;29;20056;-53
2023/12/06 11:17:44;;;;;;;12.32;8.68;;;7.90;96.70;;;;;;4896113;29;20048;-53
2023/12/06 11:20:13;;;;;;;9.60;7.45;;;7.90;96.70;;;;;;4886952;29;20072;-54
2023/12/06 11:22:42;;;;;;;11.55;7.47;;;7.90;96.70;;;;;;4879322;29;20131;-53
2023/12/06 11:25:25;;;;;;;8.60;7.13;;;8.00;96.70;;;;;;4883270;29;20048;-54
2023/12/06 11:27:57;;;;;;;9.70;7.30;;;8.10;96.70;;;;;;4881935;29;20076;-53
2023/12/06 11:30:28;;;;;;;10.02;6.25;;;8.20;96.70;;;;;;4877071;29;20049;-54
2023/12/06 11:32:58;;;;;;;8.93;6.43;;;8.20;96.70;;;;;;4869309;29;20583;-54
2023/12/06 11:35:26;;;;;;;8.75;6.55;;;8.30;96.70;;;;;;4865632;29;20080;-53
2023/12/06 11:37:56;;;;;;;7.95;6.78;;;8.30;96.70;;;;;;4877192;29;20056;-54
2023/12/06 11:40:28;;;;;;;9.27;7.45;;;8.40;96.70;;;;;;4867438;29;20500;-54
2023/12/06 11:43:01;;;;;;;9.20;7.45;;;8.30;96.70;;;;;;4884136;29;20056;-54
2023/12/06 11:45:31;;;;;;;10.35;6.18;;;8.30;96.70;;;;;;4867779;29;20162;-54
2023/12/06 11:48:04;;;;;;;9.18;7.85;;;8.30;96.70;;;;;;4882988;29;20060;-54
2023/12/06 11:50:42;;;;;;;10.13;7.70;;;8.20;96.70;;;;;;4890973;29;20048;-54
2023/12/06 11:53:12;;;;;;;9.57;6.75;;;8.30;96.70;;;;;;4892990;29;20418;-54
2023/12/06 11:55:42;;;;;;;7.63;6.63;;;8.20;96.70;;;;;;4899422;29;20479;-54
2023/12/06 11:58:13;;;;;;;6.28;5.45;;;8.30;96.70;;;;;;4897027;29;20045;-54
2023/12/06 12:00:42;;;;;;;8.38;6.20;;;8.20;96.70;;;;;;4877700;29;20056;-54
2023/12/06 12:03:11;;;;;;;8.15;6.05;;;8.30;96.70;;;;;;4877995;29;20041;-54
2023/12/06 12:05:42;;;;;;;8.80;6.55;;;8.30;96.70;;;;;;4895869;29;20063;-54
2023/12/06 12:08:14;;;;;;;10.65;6.47;;;8.40;96.70;;;;;;4883827;29;20511;-56
2023/12/06 12:10:47;;;;;;;8.48;6.20;;;8.40;96.70;;;;;;4895281;29;20063;-53
2023/12/06 12:13:18;;;;;;;8.45;6.55;;;8.40;96.70;;;;;;4871744;29;20138;-53
2023/12/06 12:15:52;;;;;;;9.18;6.95;;;8.40;96.70;;;;;;4898871;29;20060;-53
2023/12/06 12:18:21;;;;;;;9.45;7.60;;;8.50;96.70;;;;;;4877569;29;20060;-54
2023/12/06 12:20:50;;;;;;;11.95;8.98;;;8.50;96.70;;;;;;4883338;29;20176;-53
2023/12/06 12:23:19;;;;;;;9.80;8.25;;;8.40;96.70;;;;;;4898239;29;20489;-54
2023/12/06 12:25:50;;;;;;;10.88;8.57;;;8.40;96.70;;;;;;4897825;29;20099;-53
2023/12/06 12:28:23;;;;;;;13.23;9.02;;;8.40;96.70;;;;;;4883021;29;20147;-54
2023/12/06 12:30:56;;;;;;;11.43;8.60;;;8.50;96.70;;;;;;4882888;29;20049;-53
2023/12/06 12:33:27;;;;;;;8.57;7.35;;;8.50;96.70;;;;;;4895035;29;20075;-54
2023/12/06 12:35:56;;;;;;;9.43;7.95;;;8.50;96.70;;;;;;4871748;29;20104;-53
2023/12/06 12:38:26;;;;;;;7.75;6.55;;;8.50;96.70;;;;;;4881877;29;20427;-53
2023/12/06 12:40:55;;;;;;;9.65;6.57;;;8.40;96.70;;;;;;4874353;29;20043;-53
2023/12/06 12:43:25;;;;;;;9.07;6.82;;;8.40;96.70;;;;;;4883265;29;20079;-53
2023/12/06 12:45:55;;;;;;;11.23;7.20;;;8.40;96.70;;;;;;4883439;29;20056;-53
2023/12/06 12:48:25;;;;;;;10.85;7.65;;;8.50;96.70;;;;;;4878511;29;20049;-53
2023/12/06 12:51:09;;;;;;;8.02;6.80;;;8.50;96.70;;;;;;4878060;29;20507;-53
2023/12/06 12:53:38;;;;;;;9.00;6.72;;;8.40;96.70;;;;;;4896003;29;20514;-53
2023/12/06 12:56:10;;;;;;;11.82;8.00;;;8.50;96.70;;;;;;4876836;29;20060;-54
2023/12/06 12:58:42;;;;;;;8.95;6.45;;;8.50;96.70;;;;;;4879063;29;20080;-54
2023/12/06 13:01:12;;;;;;;9.18;6.32;;;8.50;96.70;;;;;;4874191;29;20048;-54
2023/12/06 13:03:41;;;;;;;8.48;7.28;;;8.50;96.70;;;;;;4878751;29;20535;-53
2023/12/06 13:06:10;;;;;;;9.93;7.28;;;8.50;96.70;;;;;;4873729;29;20120;-54
2023/12/06 13:08:42;;;;;;;6.60;5.90;;;8.50;96.70;;;;;;4868066;29;20036;-54
2023/12/06 13:11:11;;;;;;;9.35;6.47;;;8.50;96.70;;;;;;4880319;29;20100;-54